Time;durP1;ratioP1;P1;durP2;ratioP2;P2;SDS_P1;SDS_P2;PMS_P1;PMS_P2;Temp;Humidity;BMP_temperature;BMP_pressure;BME280_temperature;BME280_humidity;BME280_pressure;Samples;Min_cycle;Max_cycle;Signal;HPM_P1;HPM_P2
2022/05/15 00:01:21;;;;;;;;;;;11.40;98.30;;;;;;5057677;28;19935;-77
2022/05/15 00:03:48;;;;;;;;;;;11.50;97.90;;;;;;5056782;28;20363;-77
2022/05/15 00:06:13;;;;;;;;;;;11.60;97.70;;;;;;5050190;28;19920;-78
2022/05/15 00:08:39;;;;;;;;;;;11.60;97.30;;;;;;5043225;28;20239;-77
2022/05/15 00:11:05;;;;;;;;;;;11.60;97.30;;;;;;5050666;28;19927;-77
2022/05/15 00:13:31;;;;;;;;;;;11.70;97.70;;;;;;5057552;28;19966;-77
2022/05/15 00:15:57;;;;;;;;;;;11.70;97.50;;;;;;5057332;28;19942;-77
2022/05/15 00:18:24;;;;;;;;;;;11.80;97.20;;;;;;5056244;28;19912;-76
2022/05/15 00:20:50;;;;;;;;;;;11.80;96.90;;;;;;5057490;28;19970;-78
2022/05/15 00:23:15;;;;;;;;;;;11.90;97.10;;;;;;5042099;28;19956;-77
2022/05/15 00:25:41;;;;;;;;;;;11.80;97.10;;;;;;5047375;28;19959;-77
2022/05/15 00:28:07;;;;;;;;;;;11.80;96.80;;;;;;5058112;28;19919;-76
2022/05/15 00:30:34;;;;;;;;;;;11.80;96.50;;;;;;5051333;28;20331;-77
2022/05/15 00:33:00;;;;;;;;;;;11.90;96.70;;;;;;5041056;28;19935;-77
2022/05/15 00:35:26;;;;;;;;;;;11.90;96.70;;;;;;5061234;28;20384;-77
2022/05/15 00:37:51;;;;;;;;;;;11.90;96.80;;;;;;5058221;28;19947;-77
2022/05/15 00:40:17;;;;;;;;;;;11.90;96.90;;;;;;5059254;28;19954;-77
2022/05/15 00:42:43;;;;;;;;;;;11.90;96.80;;;;;;5051150;28;19913;-77
2022/05/15 00:45:09;;;;;;;;;;;11.80;96.90;;;;;;5051712;28;19912;-77
2022/05/15 00:47:35;;;;;;;;;;;11.80;97.10;;;;;;5040356;28;19909;-77
2022/05/15 00:50:05;;;;;;;;;;;11.80;97.60;;;;;;5058414;28;19988;-77
2022/05/15 00:52:33;;;;;;;;;;;11.80;97.60;;;;;;5059936;28;20022;-77
2022/05/15 00:55:02;;;;;;;;;;;11.80;98.10;;;;;;5037795;28;19921;-78
2022/05/15 00:58:00;;;;;;;;;;;11.80;98.30;;;;;;5039984;28;19966;-77
2022/05/15 01:00:27;;;;;;;;;;;11.90;98.20;;;;;;5016236;28;20358;-77
2022/05/15 01:02:59;;;;;;;;;;;11.80;97.80;;;;;;5041248;28;20027;-78
2022/05/15 01:05:24;;;;;;;;;;;11.80;98.10;;;;;;5038064;28;20331;-77
2022/05/15 01:07:50;;;;;;;;;;;11.80;98.40;;;;;;5037238;28;20043;-77
2022/05/15 01:10:16;;;;;;;;;;;11.80;98.00;;;;;;5040123;28;19912;-77
2022/05/15 01:12:42;;;;;;;;;;;11.90;98.00;;;;;;5038545;28;19924;-78
2022/05/15 01:15:08;;;;;;;;;;;11.90;97.90;;;;;;5040479;28;20403;-77
2022/05/15 01:17:34;;;;;;;;;;;11.90;98.10;;;;;;5041437;28;19996;-77
2022/05/15 01:20:02;;;;;;;;;;;11.90;98.30;;;;;;5030605;28;19995;-77
2022/05/15 01:22:28;;;;;;;;;;;11.90;98.60;;;;;;5040402;28;19909;-77
2022/05/15 01:24:53;;;;;;;;;;;11.90;98.50;;;;;;5038872;28;19927;-77
2022/05/15 01:27:19;;;;;;;;;;;11.90;98.60;;;;;;5040168;28;20282;-77
2022/05/15 01:29:45;;;;;;;;;;;11.90;98.90;;;;;;5022070;28;19992;-77
2022/05/15 01:32:12;;;;;;;;;;;11.90;99.40;;;;;;5031650;28;19920;-77
2022/05/15 01:34:38;;;;;;;;;;;11.90;99.40;;;;;;5040572;28;19912;-77
2022/05/15 01:37:04;;;;;;;;;;;11.90;99.50;;;;;;5040121;28;19926;-77
2022/05/15 01:39:30;;;;;;;;;;;11.90;99.60;;;;;;5040165;28;20435;-78
2022/05/15 01:41:55;;;;;;;;;;;11.80;99.50;;;;;;5032540;28;19920;-77
2022/05/15 01:44:21;;;;;;;;;;;11.80;99.90;;;;;;5036421;28;19916;-77
2022/05/15 01:46:48;;;;;;;;;;;11.80;99.80;;;;;;5030572;28;21439;-76
2022/05/15 01:49:14;;;;;;;;;;;11.80;99.50;;;;;;5041125;28;19956;-77
2022/05/15 01:51:41;;;;;;;;;;;11.70;99.60;;;;;;5040630;28;20006;-77
2022/05/15 01:54:07;;;;;;;;;;;11.70;99.80;;;;;;5049651;28;20333;-77
2022/05/15 01:56:34;;;;;;;;;;;11.70;99.80;;;;;;5050865;28;19952;-78
2022/05/15 01:58:59;;;;;;;;;;;11.70;99.80;;;;;;5046873;28;20401;-77
2022/05/15 02:01:25;;;;;;;;;;;11.70;99.90;;;;;;5039263;28;19916;-77
2022/05/15 02:03:50;;;;;;;;;;;11.60;99.90;;;;;;5058890;28;19992;-77
2022/05/15 02:06:16;;;;;;;;;;;11.60;99.90;;;;;;5046264;28;19968;-78
2022/05/15 02:08:42;;;;;;;;;;;11.70;99.90;;;;;;5045363;28;20359;-76
2022/05/15 02:11:08;;;;;;;;;;;11.70;99.90;;;;;;5061082;28;19925;-77
2022/05/15 02:13:34;;;;;;;;;;;11.70;99.90;;;;;;5063141;28;20093;-77
2022/05/15 02:15:59;;;;;;;;;;;11.70;99.90;;;;;;5061571;28;20544;-78
2022/05/15 02:18:25;;;;;;;;;;;11.70;99.90;;;;;;5062495;28;19919;-77
2022/05/15 02:20:50;;;;;;;;;;;11.70;99.90;;;;;;5062020;28;20531;-78
2022/05/15 02:23:16;;;;;;;;;;;11.70;99.90;;;;;;5060121;28;19989;-77
2022/05/15 02:25:42;;;;;;;;;;;11.70;99.90;;;;;;5061364;28;20011;-77
2022/05/15 02:28:08;;;;;;;;;;;11.80;99.90;;;;;;5062310;28;19996;-78
2022/05/15 02:30:33;;;;;;;;;;;11.80;99.90;;;;;;5062262;28;19924;-77
2022/05/15 02:32:59;;;;;;;;;;;11.80;99.90;;;;;;5041447;28;20209;-78
2022/05/15 02:35:25;;;;;;;;;;;11.80;99.90;;;;;;5062197;28;19976;-78
2022/05/15 02:37:51;;;;;;;;;;;11.80;99.90;;;;;;5044215;28;20435;-77
2022/05/15 02:40:18;;;;;;;;;;;11.80;99.90;;;;;;5062321;28;20030;-77
2022/05/15 02:42:44;;;;;;;;;;;11.70;99.90;;;;;;5063012;28;19928;-77
2022/05/15 02:45:10;;;;;;;;;;;11.70;99.90;;;;;;5045606;28;20253;-78
2022/05/15 02:47:35;;;;;;;;;;;11.70;99.90;;;;;;5058088;28;19912;-78
2022/05/15 02:52:45;;;;;;;;;;;11.70;99.90;;;;;;5060812;28;19931;-77
2022/05/15 02:55:11;;;;;;;;;;;11.70;99.90;;;;;;5043110;28;19921;-78
2022/05/15 02:57:38;;;;;;;;;;;11.70;99.90;;;;;;5059855;28;19916;-78
2022/05/15 03:00:04;;;;;;;;;;;11.70;99.90;;;;;;5062017;28;20875;-77
2022/05/15 03:02:29;;;;;;;;;;;11.70;99.90;;;;;;5043088;28;19996;-77
2022/05/15 03:04:55;;;;;;;;;;;11.70;99.90;;;;;;5054799;28;20016;-77
2022/05/15 03:07:20;;;;;;;;;;;11.70;99.90;;;;;;5050659;28;19984;-77
2022/05/15 03:09:47;;;;;;;;;;;11.70;99.90;;;;;;5062146;28;19975;-78
2022/05/15 03:12:13;;;;;;;;;;;11.70;99.90;;;;;;5059657;28;20007;-78
2022/05/15 03:14:38;;;;;;;;;;;11.70;99.90;;;;;;5060020;28;20349;-77
2022/05/15 03:17:04;;;;;;;;;;;11.70;99.90;;;;;;5040002;28;19909;-77
2022/05/15 03:19:29;;;;;;;;;;;11.70;99.90;;;;;;5042212;28;19943;-77
2022/05/15 03:21:55;;;;;;;;;;;11.70;99.90;;;;;;5060592;28;20264;-77
2022/05/15 03:24:20;;;;;;;;;;;11.70;99.90;;;;;;5062014;28;20442;-77
2022/05/15 03:26:47;;;;;;;;;;;11.70;99.90;;;;;;5060849;28;19970;-79
2022/05/15 03:29:13;;;;;;;;;;;11.60;99.90;;;;;;5061297;28;19938;-78
2022/05/15 03:31:39;;;;;;;;;;;11.70;99.90;;;;;;5057686;28;20011;-79
2022/05/15 03:34:06;;;;;;;;;;;11.70;99.90;;;;;;5042220;28;20529;-79
2022/05/15 03:36:33;;;;;;;;;;;11.70;99.90;;;;;;5057652;28;20384;-79
2022/05/15 03:38:58;;;;;;;;;;;11.60;99.90;;;;;;5061278;28;19917;-79
2022/05/15 03:41:24;;;;;;;;;;;11.60;99.90;;;;;;5061732;28;19955;-79
2022/05/15 03:43:49;;;;;;;;;;;11.60;99.90;;;;;;5061770;28;19908;-79
2022/05/15 03:46:15;;;;;;;;;;;11.60;99.90;;;;;;5060814;28;19977;-78
2022/05/15 03:48:40;;;;;;;;;;;11.50;99.90;;;;;;5061574;28;20007;-79
2022/05/15 03:51:06;;;;;;;;;;;11.50;99.90;;;;;;5061157;28;19920;-79
2022/05/15 03:53:32;;;;;;;;;;;11.50;99.90;;;;;;5060427;28;19977;-79
2022/05/15 03:55:58;;;;;;;;;;;11.60;99.90;;;;;;5042445;28;19919;-79
2022/05/15 03:58:25;;;;;;;;;;;11.60;99.90;;;;;;5060112;28;20274;-78
2022/05/15 04:00:51;;;;;;;;;;;11.50;99.90;;;;;;5056267;28;20174;-79
2022/05/15 04:03:17;;;;;;;;;;;11.50;99.90;;;;;;5054676;28;20384;-79
2022/05/15 04:05:42;;;;;;;;;;;11.50;99.90;;;;;;5056110;28;19912;-79
2022/05/15 04:08:08;;;;;;;;;;;11.50;99.90;;;;;;5023469;28;19959;-78
2022/05/15 04:10:33;;;;;;;;;;;11.50;99.90;;;;;;5058388;28;20035;-78
2022/05/15 04:12:59;;;;;;;;;;;11.50;99.90;;;;;;5060445;28;20025;-79
2022/05/15 04:15:24;;;;;;;;;;;11.50;99.90;;;;;;5060768;28;20018;-79
2022/05/15 04:17:50;;;;;;;;;;;11.40;99.90;;;;;;5071926;28;20446;-79
2022/05/15 04:20:18;;;;;;;;;;;11.40;99.90;;;;;;5060928;28;19913;-79
2022/05/15 04:22:43;;;;;;;;;;;11.40;99.90;;;;;;5062511;28;19915;-79
2022/05/15 04:25:11;;;;;;;;;;;11.50;99.90;;;;;;5061314;28;19912;-78
2022/05/15 04:27:37;;;;;;;;;;;11.50;99.90;;;;;;5061554;28;20407;-79
2022/05/15 04:30:03;;;;;;;;;;;11.50;99.90;;;;;;5062237;28;19931;-79
2022/05/15 04:32:28;;;;;;;;;;;11.50;99.90;;;;;;5060645;28;19917;-79
2022/05/15 04:34:54;;;;;;;;;;;11.40;99.90;;;;;;5060768;28;19920;-78
2022/05/15 04:37:19;;;;;;;;;;;11.40;99.90;;;;;;5062000;28;19908;-79
2022/05/15 04:39:45;;;;;;;;;;;11.40;99.90;;;;;;5061056;28;19948;-79
2022/05/15 04:42:10;;;;;;;;;;;11.50;99.90;;;;;;5060815;28;19912;-79
2022/05/15 04:44:36;;;;;;;;;;;11.50;99.90;;;;;;5061816;28;20268;-79
2022/05/15 04:47:02;;;;;;;;;;;11.60;99.90;;;;;;5056920;28;19939;-79
2022/05/15 04:49:27;;;;;;;;;;;11.70;99.90;;;;;;5055524;28;20331;-79
2022/05/15 04:51:53;;;;;;;;;;;11.80;99.90;;;;;;5058507;28;20006;-79
2022/05/15 04:54:18;;;;;;;;;;;11.90;99.90;;;;;;5060779;28;20415;-79
2022/05/15 04:56:44;;;;;;;;;;;12.00;99.90;;;;;;5058085;28;19916;-79
2022/05/15 04:59:09;;;;;;;;;;;12.00;99.90;;;;;;5060587;28;19965;-79
2022/05/15 05:01:35;;;;;;;;;;;12.00;99.90;;;;;;5054785;28;19909;-79
2022/05/15 05:04:00;;;;;;;;;;;12.10;99.90;;;;;;5048394;28;19995;-79
2022/05/15 05:06:27;;;;;;;;;;;12.10;99.90;;;;;;5059577;28;20423;-78
2022/05/15 05:08:52;;;;;;;;;;;12.20;99.90;;;;;;5060696;28;19924;-79
2022/05/15 05:11:18;;;;;;;;;;;12.20;99.90;;;;;;5058119;28;19962;-78
2022/05/15 05:13:44;;;;;;;;;;;12.20;99.90;;;;;;5059795;28;20046;-80
2022/05/15 05:16:09;;;;;;;;;;;12.20;99.90;;;;;;5058745;28;19908;-79
2022/05/15 05:18:35;;;;;;;;;;;12.30;99.90;;;;;;5057151;28;20047;-79
2022/05/15 05:21:00;;;;;;;;;;;12.30;99.90;;;;;;5058985;28;19912;-79
2022/05/15 05:23:26;;;;;;;;;;;12.30;99.90;;;;;;5054154;28;20368;-79
2022/05/15 05:25:51;;;;;;;;;;;12.30;99.90;;;;;;5056117;28;19918;-79
2022/05/15 05:28:17;;;;;;;;;;;12.40;99.90;;;;;;5057880;28;20344;-79
2022/05/15 05:30:43;;;;;;;;;;;12.50;99.90;;;;;;5054229;28;20548;-79
2022/05/15 05:33:08;;;;;;;;;;;12.60;99.90;;;;;;5057206;28;19978;-79
2022/05/15 05:35:35;;;;;;;;;;;12.60;99.40;;;;;;5058165;28;19947;-79
2022/05/15 05:38:00;;;;;;;;;;;12.70;99.70;;;;;;5051975;28;20009;-80
2022/05/15 05:40:26;;;;;;;;;;;12.70;99.60;;;;;;5055500;28;19996;-79
2022/05/15 05:42:51;;;;;;;;;;;12.80;99.50;;;;;;5057486;28;20006;-79
2022/05/15 05:45:17;;;;;;;;;;;12.80;99.40;;;;;;5045859;28;20355;-79
2022/05/15 05:47:44;;;;;;;;;;;12.80;99.40;;;;;;5046114;28;20288;-79
2022/05/15 05:50:10;;;;;;;;;;;12.80;99.30;;;;;;5062494;28;19961;-79
2022/05/15 05:52:41;;;;;;;;;;;12.70;99.30;;;;;;5063406;28;20559;-79
2022/05/15 05:55:07;;;;;;;;;;;12.70;99.50;;;;;;5056503;28;19927;-80
2022/05/15 05:57:33;;;;;;;;;;;12.70;99.60;;;;;;5062147;28;19938;-79
2022/05/15 05:59:58;;;;;;;;;;;12.70;99.40;;;;;;5062249;28;19912;-79
2022/05/15 06:02:25;;;;;;;;;;;12.70;99.40;;;;;;5056002;28;19912;-79
2022/05/15 06:04:51;;;;;;;;;;;12.70;99.30;;;;;;5054760;28;19993;-79
2022/05/15 06:07:18;;;;;;;;;;;12.70;99.50;;;;;;5057622;28;20342;-79
2022/05/15 06:09:45;;;;;;;;;;;12.80;99.60;;;;;;5043942;28;19908;-79
2022/05/15 06:12:11;;;;;;;;;;;12.70;99.80;;;;;;5057927;28;19931;-79
2022/05/15 06:14:37;;;;;;;;;;;12.80;99.80;;;;;;5064001;28;20285;-79
2022/05/15 06:17:03;;;;;;;;;;;12.80;99.50;;;;;;5063691;28;19970;-79
2022/05/15 06:19:28;;;;;;;;;;;12.90;99.40;;;;;;5060990;28;19934;-79
2022/05/15 06:21:54;;;;;;;;;;;12.90;98.90;;;;;;5061518;28;19924;-80
2022/05/15 06:24:19;;;;;;;;;;;12.90;98.50;;;;;;5051377;28;20332;-80
2022/05/15 06:26:45;;;;;;;;;;;13.00;99.20;;;;;;5053182;28;20388;-79
2022/05/15 06:29:10;;;;;;;;;;;13.00;99.20;;;;;;5058428;28;19949;-78
2022/05/15 06:31:37;;;;;;;;;;;12.90;99.20;;;;;;5059399;28;19950;-79
2022/05/15 06:34:02;;;;;;;;;;;13.00;99.50;;;;;;5056889;28;19916;-79
2022/05/15 06:36:28;;;;;;;;;;;13.00;99.80;;;;;;5056091;28;19918;-79
2022/05/15 06:38:53;;;;;;;;;;;13.00;99.90;;;;;;5058538;28;19950;-79
2022/05/15 06:41:19;;;;;;;;;;;13.10;99.50;;;;;;5056937;28;19923;-79
2022/05/15 06:43:44;;;;;;;;;;;13.30;99.30;;;;;;5058661;28;19938;-79
2022/05/15 06:46:10;;;;;;;;;;;13.30;99.10;;;;;;5057418;28;20391;-79
2022/05/15 06:48:38;;;;;;;;;;;13.40;99.50;;;;;;5053347;28;19913;-80
2022/05/15 06:51:04;;;;;;;;;;;13.50;99.40;;;;;;5058345;28;19931;-80
2022/05/15 06:53:30;;;;;;;;;;;13.60;98.70;;;;;;5057410;28;19920;-79
2022/05/15 06:58:39;;;;;;;;;;;13.80;98.70;;;;;;5057912;28;19939;-80
2022/05/15 07:01:05;;;;;;;;;;;13.90;97.90;;;;;;5051873;28;19912;-81
2022/05/15 07:03:30;;;;;;;;;;;14.10;97.50;;;;;;5054027;28;19932;-79
2022/05/15 07:05:56;;;;;;;;;;;14.30;97.30;;;;;;5053648;28;20401;-80
2022/05/15 07:08:21;;;;;;;;;;;14.50;96.90;;;;;;5055406;28;20290;-80
2022/05/15 07:10:47;;;;;;;;;;;14.90;96.60;;;;;;5055929;28;20049;-80
2022/05/15 07:13:13;;;;;;;;;;;15.30;95.50;;;;;;5047970;28;20007;-79
2022/05/15 07:15:39;;;;;;;;;;;15.80;95.60;;;;;;5049164;28;19913;-78
2022/05/15 07:18:05;;;;;;;;;;;16.20;93.50;;;;;;5031054;28;19923;-78
2022/05/15 07:20:31;;;;;;;;;;;16.80;91.90;;;;;;5034265;28;19969;-80
2022/05/15 07:22:56;;;;;;;;;;;17.00;90.90;;;;;;5056905;28;19980;-79
2022/05/15 07:25:22;;;;;;;;;;;17.50;90.10;;;;;;5053856;28;19917;-78
2022/05/15 07:27:48;;;;;;;;;;;17.70;90.10;;;;;;5059986;28;20276;-78
2022/05/15 07:30:13;;;;;;;;;;;17.90;89.80;;;;;;5053179;28;19912;-78
2022/05/15 07:32:39;;;;;;;;;;;18.20;89.90;;;;;;5059029;28;19928;-78
2022/05/15 07:35:05;;;;;;;;;;;18.40;85.50;;;;;;5054518;28;19923;-78
2022/05/15 07:37:30;;;;;;;;;;;18.90;84.90;;;;;;5058566;28;19912;-78
2022/05/15 07:39:56;;;;;;;;;;;19.40;83.60;;;;;;5057380;28;20358;-78
2022/05/15 07:42:21;;;;;;;;;;;19.70;79.80;;;;;;5055400;28;19917;-78
2022/05/15 07:44:47;;;;;;;;;;;19.50;82.10;;;;;;5062462;28;19920;-78
2022/05/15 07:47:13;;;;;;;;;;;19.50;78.30;;;;;;5063856;28;20723;-78
2022/05/15 07:49:39;;;;;;;;;;;19.50;80.00;;;;;;5061748;28;19950;-78
2022/05/15 07:52:05;;;;;;;;;;;19.40;78.60;;;;;;5039868;28;20074;-78
2022/05/15 07:54:33;;;;;;;;;;;19.30;78.00;;;;;;5032904;28;19920;-78
2022/05/15 07:56:59;;;;;;;;;;;19.10;80.40;;;;;;5052611;28;20042;-78
2022/05/15 07:59:24;;;;;;;;;;;19.00;76.90;;;;;;5055577;28;21121;-77
2022/05/15 08:01:50;;;;;;;;;;;18.80;79.50;;;;;;5051651;28;19912;-77
2022/05/15 08:04:18;;;;;;;;;;;18.60;80.10;;;;;;5051890;28;20010;-77
2022/05/15 08:09:27;;;;;;;;;;;18.10;80.70;;;;;;5055715;28;19934;-77
2022/05/15 08:11:53;;;;;;;;;;;17.80;81.40;;;;;;5057343;28;19924;-77
2022/05/15 08:14:20;;;;;;;;;;;17.50;82.50;;;;;;5052152;28;20249;-77
2022/05/15 08:16:46;;;;;;;;;;;17.40;83.10;;;;;;5057486;28;19924;-77
2022/05/15 08:24:40;;;;;;;;;;;16.70;89.90;;;;;;5054830;28;20321;-77
2022/05/15 08:27:05;;;;;;;;;;;16.60;90.70;;;;;;5052214;28;19912;-77
2022/05/15 08:29:31;;;;;;;;;;;16.30;91.50;;;;;;5041662;28;19912;-76
2022/05/15 08:31:56;;;;;;;;;;;16.10;91.80;;;;;;5055812;28;19990;-78
2022/05/15 08:34:22;;;;;;;;;;;15.80;93.50;;;;;;5060418;28;19923;-79
2022/05/15 08:36:49;;;;;;;;;;;15.60;94.50;;;;;;5059876;28;20007;-79
2022/05/15 08:39:15;;;;;;;;;;;15.40;95.60;;;;;;5058755;28;20185;-77
2022/05/15 08:41:54;;;;;;;;;;;15.30;96.70;;;;;;5059062;28;20379;-78
2022/05/15 08:44:21;;;;;;;;;;;15.10;96.30;;;;;;5048569;28;19964;-78
2022/05/15 08:46:56;;;;;;;;;;;15.00;97.00;;;;;;5060982;28;19924;-77
2022/05/15 08:49:27;;;;;;;;;;;14.90;98.50;;;;;;5058727;28;19920;-78
2022/05/15 08:51:53;;;;;;;;;;;14.80;98.30;;;;;;5058462;28;20349;-77
2022/05/15 08:54:18;;;;;;;;;;;14.70;99.20;;;;;;5054287;28;19920;-78
2022/05/15 08:56:45;;;;;;;;;;;14.60;99.60;;;;;;5051696;28;20267;-75
2022/05/15 08:59:17;;;;;;;;;;;14.50;99.60;;;;;;5048388;28;20194;-76
2022/05/15 09:01:43;;;;;;;;;;;14.40;99.90;;;;;;5050958;28;19943;-76
2022/05/15 09:04:08;;;;;;;;;;;14.30;99.90;;;;;;5048390;28;20316;-76
2022/05/15 09:06:48;;;;;;;;;;;14.40;99.90;;;;;;5042408;28;20151;-77
2022/05/15 09:09:32;;;;;;;;;;;14.40;99.90;;;;;;5051073;28;19924;-77
2022/05/15 09:12:20;;;;;;;;;;;14.50;99.90;;;;;;5047676;28;20007;-77
2022/05/15 09:14:53;;;;;;;;;;;14.60;99.90;;;;;;5049289;28;19931;-75
2022/05/15 09:17:34;;;;;;;;;;;14.60;99.90;;;;;;5100020;22;19928;-77
2022/05/15 09:20:08;;;;;;;;;;;14.60;99.90;;;;;;5107707;27;19923;-77
2022/05/15 09:22:35;;;;;;;;;;;14.70;99.90;;;;;;5085429;27;20362;-77
2022/05/15 09:25:04;;;;;;;;;;;14.80;99.90;;;;;;5099332;27;20014;-77
2022/05/15 09:27:30;;;;;;;;;;;14.90;99.90;;;;;;5100741;27;19915;-77
2022/05/15 09:29:57;;;;;;;;;;;15.00;99.90;;;;;;5109572;27;19975;-77
2022/05/15 09:32:27;;;;;;;;;;;15.20;99.90;;;;;;5084987;27;19928;-77
2022/05/15 09:34:54;;;;;;;;;;;15.40;99.90;;;;;;5108365;27;19931;-77
2022/05/15 09:40:12;;;;;;;;;;;15.70;99.80;;;;;;5100880;27;20558;-78
2022/05/15 09:45:34;;;;;;;;;;;16.20;99.40;;;;;;5101949;27;20132;-78
2022/05/15 09:48:04;;;;;;;;;;;16.50;98.90;;;;;;5101661;27;20175;-78
2022/05/15 09:50:53;;;;;;;;;;;16.60;96.80;;;;;;5103277;27;19915;-79
2022/05/15 09:53:25;;;;;;;;;;;16.70;96.70;;;;;;5089219;27;19946;-78
2022/05/15 09:55:57;;;;;;;;;;;16.90;96.70;;;;;;5083925;27;19915;-78
2022/05/15 09:58:23;;;;;;;;;;;17.20;97.00;;;;;;5079318;27;19915;-79
2022/05/15 10:00:49;;;;;;;;;;;17.90;96.60;;;;;;5103804;27;20354;-78
2022/05/15 10:03:21;;;;;;;;;;;18.80;94.90;;;;;;5079594;27;19911;-79
2022/05/15 10:05:55;;;;;;;;;;;19.50;92.70;;;;;;5102562;27;19916;-79
2022/05/15 10:08:22;;;;;;;;;;;20.10;91.60;;;;;;5101282;27;20048;-80
2022/05/15 10:10:47;;;;;;;;;;;20.10;90.80;;;;;;5102868;27;19922;-80
2022/05/15 10:13:31;;;;;;;;;;;19.70;91.00;;;;;;5103718;27;19922;-80
2022/05/15 10:16:02;;;;;;;;;;;19.50;92.00;;;;;;5086113;27;19938;-81
2022/05/15 10:18:29;;;;;;;;;;;18.80;92.10;;;;;;5106783;27;20012;-80
2022/05/15 10:20:55;;;;;;;;;;;18.60;92.30;;;;;;5104287;27;19912;-81
2022/05/15 10:23:20;;;;;;;;;;;18.20;92.90;;;;;;5101494;27;19998;-80
2022/05/15 10:25:49;;;;;;;;;;;18.00;94.60;;;;;;5084403;27;19965;-81
2022/05/15 10:28:33;;;;;;;;;;;17.80;94.90;;;;;;5100260;27;19939;-82
2022/05/15 10:31:01;;;;;;;;;;;17.60;95.60;;;;;;5103723;27;20018;-80
2022/05/15 10:33:27;;;;;;;;;;;17.30;95.60;;;;;;5107278;27;19969;-80
2022/05/15 10:36:02;;;;;;;;;;;17.10;97.00;;;;;;5105035;27;20394;-81
2022/05/15 10:38:42;;;;;;;;;;;16.90;97.30;;;;;;5104456;27;19933;-81
2022/05/15 10:41:16;;;;;;;;;;;16.60;97.60;;;;;;5103164;27;19951;-81
2022/05/15 10:43:41;;;;;;;;;;;16.60;98.00;;;;;;5104915;27;19913;-81
2022/05/15 10:46:13;;;;;;;;;;;16.40;98.20;;;;;;5101762;27;20040;-81
2022/05/15 10:48:53;;;;;;;;;;;16.40;98.90;;;;;;5086371;27;19960;-81
2022/05/15 10:51:43;;;;;;;;;;;16.50;98.60;;;;;;5111265;27;19920;-81
2022/05/15 10:59:48;;;;;;;;;;;16.60;97.20;;;;;;5111069;27;20541;-76
2022/05/15 11:02:25;;;;;;;;;;;16.60;98.70;;;;;;5109561;27;19921;-77
2022/05/15 11:04:54;;;;;;;;;;;16.60;98.90;;;;;;5108445;27;19996;-78
2022/05/15 11:07:35;;;;;;;;;;;16.70;97.00;;;;;;5109573;27;19911;-77
2022/05/15 11:10:18;;;;;;;;;;;16.60;96.50;;;;;;5119038;27;19919;-78
2022/05/15 11:12:52;;;;;;;;;;;16.70;97.30;;;;;;5122143;27;19931;-77
2022/05/15 11:15:30;;;;;;;;;;;16.80;97.70;;;;;;5134970;27;19907;-76
2022/05/15 11:18:08;;;;;;;;;;;16.80;96.90;;;;;;5111672;27;20062;-77
2022/05/15 11:20:42;;;;;;;;;;;17.00;97.70;;;;;;5119247;27;24135;-77
2022/05/15 11:23:14;;;;;;;;;;;17.00;97.70;;;;;;5112938;27;19911;-77
2022/05/15 11:25:52;;;;;;;;;;;17.10;98.20;;;;;;5120777;27;24090;-77
2022/05/15 11:28:17;;;;;;;;;;;17.30;97.90;;;;;;5117813;27;19994;-77
2022/05/15 11:30:44;;;;;;;;;;;17.40;97.80;;;;;;5096500;27;20679;-87
2022/05/15 11:33:22;;;;;;;;;;;17.40;97.80;;;;;;5114305;27;19916;-75
2022/05/15 11:36:06;;;;;;;;;;;17.40;97.60;;;;;;5118513;27;20483;-76
2022/05/15 11:38:43;;;;;;;;;;;17.30;96.90;;;;;;5113964;27;19911;-76
2022/05/15 11:41:29;;;;;;;;;;;17.30;97.60;;;;;;5120195;27;20054;-76
2022/05/15 11:43:56;;;;;;;;;;;17.20;97.30;;;;;;5106964;27;19954;-77
2022/05/15 11:46:21;;;;;;;;;;;17.20;97.70;;;;;;5122376;27;19952;-77
2022/05/15 11:48:52;;;;;;;;;;;17.20;98.40;;;;;;5114325;27;19915;-77
2022/05/15 11:51:25;;;;;;;;;;;17.20;98.10;;;;;;5112036;27;19919;-79
2022/05/15 11:54:07;;;;;;;;;;;17.00;98.30;;;;;;5113249;27;20039;-77
2022/05/15 11:56:39;;;;;;;;;;;17.00;98.30;;;;;;5115675;27;19926;-77
2022/05/15 11:59:14;;;;;;;;;;;16.90;98.50;;;;;;5114273;27;20057;-77
2022/05/15 12:01:40;;;;;;;;;;;16.90;99.00;;;;;;5116810;27;19962;-77
2022/05/15 12:04:07;;;;;;;;;;;16.80;99.40;;;;;;5098213;27;19947;-77
2022/05/15 12:06:53;;;;;;;;;;;16.60;99.30;;;;;;5122545;27;19918;-77
2022/05/15 12:09:19;;;;;;;;;;;16.50;99.50;;;;;;5100448;22;20044;-74
2022/05/15 12:11:49;;;;;;;;;;;16.50;99.90;;;;;;5095680;28;19946;-74
2022/05/15 12:14:26;;;;;;;;;;;16.50;99.90;;;;;;5099854;27;19933;-74
2022/05/15 12:16:57;;;;;;;;;;;16.60;99.90;;;;;;5099634;28;20375;-74
2022/05/15 12:19:24;;;;;;;;;;;16.80;99.90;;;;;;4742139;28;9999770;-74
2022/05/15 12:21:51;;;;;;;;;;;17.00;99.90;;;;;;5091529;28;20270;-73
2022/05/15 12:24:29;;;;;;;;;;;17.10;99.90;;;;;;5099070;28;20176;-73
2022/05/15 12:27:03;;;;;;;;;;;17.30;98.50;;;;;;5083974;28;20850;-72
2022/05/15 12:29:50;;;;;;;;;;;17.30;99.00;;;;;;5088219;27;19970;-72
2022/05/15 12:32:22;;;;;;;;;;;17.40;98.90;;;;;;5101655;28;19934;-73
2022/05/15 12:34:49;;;;;;;;;;;17.50;98.70;;;;;;5102017;28;19923;-73
2022/05/15 12:37:22;;;;;;;;;;;17.70;98.40;;;;;;5093479;28;20312;-73
2022/05/15 12:39:49;;;;;;;;;;;17.80;98.30;;;;;;5094185;28;19911;-73
2022/05/15 12:42:34;;;;;;;;;;;18.00;98.00;;;;;;5087266;28;20065;-72
2022/05/15 12:47:25;;;;;;;;;;;18.30;98.10;;;;;;5038064;22;19929;-73
2022/05/15 12:49:58;;;;;;;;;;;18.30;97.50;;;;;;5031633;28;20557;-73
2022/05/15 12:52:31;;;;;;;;;;;18.60;97.60;;;;;;5028473;28;20153;-73
2022/05/15 12:55:00;;;;;;;;;;;18.50;96.00;;;;;;5028524;28;19913;-73
2022/05/15 12:57:25;;;;;;;;;;;18.30;96.20;;;;;;5032630;28;20324;-74
2022/05/15 12:59:52;;;;;;;;;;;18.10;96.90;;;;;;5026271;28;19939;-74
2022/05/15 13:02:34;;;;;;;;;;;17.80;97.00;;;;;;5028802;28;20319;-74
2022/05/15 13:05:20;;;;;;;;;;;17.80;98.20;;;;;;5029897;28;20063;-74
2022/05/15 13:07:46;;;;;;;;;;;17.70;97.80;;;;;;5029257;28;19963;-74
2022/05/15 13:10:14;;;;;;;;;;;17.60;98.10;;;;;;5024192;28;20185;-75
2022/05/15 13:12:54;;;;;;;;;;;17.60;98.40;;;;;;5024282;28;20382;-74
2022/05/15 13:15:23;;;;;;;;;;;17.50;98.90;;;;;;5028905;28;19978;-75
2022/05/15 13:17:49;;;;;;;;;;;17.50;99.10;;;;;;5030771;28;19912;-75
2022/05/15 13:20:16;;;;;;;;;;;17.70;98.70;;;;;;5028572;28;19917;-75
2022/05/15 13:22:42;;;;;;;;;;;18.00;98.70;;;;;;5030734;28;20455;-75
2022/05/15 13:25:11;;;;;;;;;;;18.30;98.00;;;;;;5035663;28;19947;-74
2022/05/15 13:27:39;;;;;;;;;;;18.40;97.30;;;;;;5034335;28;19912;-74
2022/05/15 13:30:05;;;;;;;;;;;18.30;96.90;;;;;;5028225;28;19952;-75
2022/05/15 13:32:31;;;;;;;;;;;18.40;97.10;;;;;;5025707;28;19920;-75
2022/05/15 13:34:56;;;;;;;;;;;18.40;96.60;;;;;;5032635;28;19912;-74
2022/05/15 13:37:33;;;;;;;;;;;18.30;96.60;;;;;;5031547;28;19912;-75
2022/05/15 13:45:29;;;;;;;;;;;17.70;97.60;;;;;;5031183;28;19919;-74
2022/05/15 13:48:21;;;;;;;;;;;17.50;98.40;;;;;;5029879;28;19912;-74
2022/05/15 13:50:49;;;;;;;;;;;17.40;98.90;;;;;;5026400;28;20140;-74
2022/05/15 13:53:33;;;;;;;;;;;17.30;99.50;;;;;;5031174;28;19921;-75
2022/05/15 13:56:02;;;;;;;;;;;17.30;99.50;;;;;;5031390;28;19955;-75
2022/05/15 13:58:41;;;;;;;;;;;17.10;99.30;;;;;;5027113;28;20291;-75
2022/05/15 14:01:13;;;;;;;;;;;17.10;99.90;;;;;;5030128;28;19998;-74
2022/05/15 14:03:38;;;;;;;;;;;17.20;99.80;;;;;;5031208;28;19912;-74
2022/05/15 14:06:18;;;;;;;;;;;17.20;99.40;;;;;;5034185;28;19920;-75
2022/05/15 14:08:55;;;;;;;;;;;17.30;99.90;;;;;;5032211;28;19917;-74
2022/05/15 14:11:21;;;;;;;;;;;17.50;99.50;;;;;;5038164;28;19917;-74
2022/05/15 14:13:48;;;;;;;;;;;17.60;98.90;;;;;;5014721;28;19932;-74
2022/05/15 14:16:19;;;;;;;;;;;17.60;97.60;;;;;;5029079;28;20006;-74
2022/05/15 14:18:45;;;;;;;;;;;17.70;98.20;;;;;;5035947;28;19959;-75
2022/05/15 14:21:21;;;;;;;;;;;17.70;98.50;;;;;;5036099;28;20379;-74
2022/05/15 14:23:47;;;;;;;;;;;17.70;98.70;;;;;;5036608;28;19916;-74
2022/05/15 14:26:13;;;;;;;;;;;17.80;97.70;;;;;;5040728;28;19970;-74
2022/05/15 14:28:39;;;;;;;;;;;17.80;97.60;;;;;;5039633;28;19916;-74
2022/05/15 14:31:07;;;;;;;;;;;17.80;98.60;;;;;;5025111;28;19923;-74
2022/05/15 14:33:32;;;;;;;;;;;17.80;98.10;;;;;;5033071;28;20015;-74
2022/05/15 14:35:58;;;;;;;;;;;17.90;98.20;;;;;;5032222;28;19912;-73
2022/05/15 14:38:24;;;;;;;;;;;17.90;97.90;;;;;;5030991;28;20449;-75
2022/05/15 14:40:49;;;;;;;;;;;17.90;97.00;;;;;;5031615;28;19974;-75
2022/05/15 14:43:15;;;;;;;38.80;23.90;;;17.90;97.40;;;;;;5034669;28;19989;-76
2022/05/15 14:45:46;;;;;;;;;;;17.90;97.40;;;;;;5025842;28;20191;-76
2022/05/15 14:48:13;;;;;;;;;;;17.90;97.70;;;;;;5030865;28;20021;-75
2022/05/15 14:50:39;;;;;;;;;;;17.80;97.90;;;;;;5031597;28;19952;-75
2022/05/15 14:53:06;;;;;;;;;;;17.80;98.20;;;;;;5031790;28;20023;-75
2022/05/15 14:58:17;;;;;;;;;;;17.40;99.00;;;;;;5030190;28;24061;-75